WetterOnline ( https://www.wetteronline.de )

Wetter aktuell Taunusstein

Aktuelles Wetter: Geisenheim (110m)

6-stündlich | Neueste Meldungen
Ortszeit Temperatur Wetter
Fr, 28.01. 19:00 3.7° C bedeckt
Fr, 28.01. 13:00 7.2° C wolkig
Fr, 28.01. 7:00 4.3° C bewölkt
Fr, 28.01. 1:00 5.4° C leicht bewölkt
Do, 27.01. 19:00 4.1° C bedeckt
Do, 27.01. 13:00 3.3° C bedeckt
Do, 27.01. 7:00 1.6° C bedeckt
Do, 27.01. 1:00 1.4° C bedeckt
Ortszeit Temperatur Wetter
Sa, 29.01. 0:00 4.7° C bedeckt
Fr, 28.01. 23:50 4.7° C bedeckt
Fr, 28.01. 23:40 4.7° C bedeckt
Fr, 28.01. 23:30 4.7° C bedeckt
Fr, 28.01. 23:20 4.7° C bedeckt
Fr, 28.01. 23:10 4.6° C bedeckt
Fr, 28.01. 23:00 4.6° C bedeckt
Fr, 28.01. 22:30 4.4° C bedeckt
Fr, 28.01. 22:00 4.1° C bedeckt
Fr, 28.01. 21:30 3.9° C bewölkt
Fr, 28.01. 21:00 4.4° C bedeckt
Ortszeit Relative Feuchte Sichtweite
Fr, 28.01. 19:00 74% 55 km
Fr, 28.01. 13:00 57% 40 km
Fr, 28.01. 7:00 74% 45 km
Fr, 28.01. 1:00 75% 50 km
Do, 27.01. 19:00 81% 40 km
Do, 27.01. 13:00 79% 25 km
Do, 27.01. 7:00 78% 20 km
Do, 27.01. 1:00 79% 19 km
Ortszeit Relative Feuchte Sichtweite
Sa, 29.01. 0:00 80% 30 km
Fr, 28.01. 23:50 80% -
Fr, 28.01. 23:40 81% -
Fr, 28.01. 23:30 80% 30 km
Fr, 28.01. 23:20 80% -
Fr, 28.01. 23:10 81% -
Fr, 28.01. 23:00 81% 35 km
Fr, 28.01. 22:30 81% 35 km
Fr, 28.01. 22:00 83% 35 km
Fr, 28.01. 21:30 81% 30 km
Fr, 28.01. 21:00 79% 35 km
Ortszeit Niederschlagsmenge Niederschlagsart
Fr, 28.01. 19:00 0.1 l/m2 in 12 Std. -
Fr, 28.01. 13:00 0.1 l/m2 in 6 Std. Regen
Fr, 28.01. 7:00 0.9 l/m2 in 12 Std. Regen
Fr, 28.01. 1:00 0.2 l/m2 in 6 Std. Regen
Do, 27.01. 19:00 0.1 l/m2 in 12 Std. Regen
Do, 27.01. 13:00 0.1 l/m2 in 6 Std. Sprühregen
Do, 27.01. 7:00 0.0 l/m2 in 12 Std. -
Do, 27.01. 1:00 0.0 l/m2 in 6 Std. -
Ortszeit Niederschlagsmenge Niederschlagsart
Sa, 29.01. 0:00 0.0 l/m2 in 1 Std. -
Fr, 28.01. 23:50 keine Meldung -
Fr, 28.01. 23:40 keine Meldung -
Fr, 28.01. 23:30 0.0 l/m2 in 1 Std. -
Fr, 28.01. 23:20 keine Meldung -
Fr, 28.01. 23:10 keine Meldung -
Fr, 28.01. 23:00 0.0 l/m2 in 1 Std. -
Fr, 28.01. 22:30 0.0 l/m2 in 1 Std. -
Fr, 28.01. 22:00 0.0 l/m2 in 1 Std. -
Fr, 28.01. 21:30 0.0 l/m2 in 1 Std. -
Fr, 28.01. 21:00 0.0 l/m2 in 1 Std. -
Ortszeit Stärke Spitze Richtung
km/h Bft. km/h Grad Sektor
Fr, 28.01. 19:00 6 1 31 260° W
Fr, 28.01. 13:00 17 3 33 270° W
Fr, 28.01. 7:00 13 3 28 290° W
Fr, 28.01. 1:00 9 2 35 270° W
Do, 27.01. 19:00 13 3 30 200° S
Do, 27.01. 13:00 11 2 25 210° SW
Do, 27.01. 7:00 11 2 32 240° SW
Do, 27.01. 1:00 9 2 22 240° SW
Ortszeit Stärke Spitze Richtung
km/h Bft. km/h Grad Sektor
Sa, 29.01. 0:00 9 2 19 230° SW
Fr, 28.01. 23:50 9 2 - 230° SW
Fr, 28.01. 23:40 9 2 - 210° SW
Fr, 28.01. 23:30 11 2 18 210° SW
Fr, 28.01. 23:20 11 2 - 210° SW
Fr, 28.01. 23:10 7 2 - 210° SW
Fr, 28.01. 23:00 7 2 14 200° S
Fr, 28.01. 22:30 7 2 11 210° SW
Fr, 28.01. 22:00 4 1 11 220° SW
Fr, 28.01. 21:30 4 1 11 260° W
Fr, 28.01. 21:00 7 2 18 230° SW
Ortszeit Untergrenze Bedeckung Gattung
total tief tief mittel hoch
Fr, 28.01. 19:00 3300 m 8/8 8/8 - - -
Fr, 28.01. 13:00 1320 m 6/8 5/8 - - -
Fr, 28.01. 7:00 960 m 7/8 7/8 - - -
Fr, 28.01. 1:00 1260 m 4/8 4/8 - - -
Do, 27.01. 19:00 570 m 8/8 8/8 - - -
Do, 27.01. 13:00 540 m 8/8 8/8 - - -
Do, 27.01. 7:00 480 m 8/8 8/8 - - -
Do, 27.01. 1:00 450 m 8/8 8/8 - - -
Ortszeit Bedeckungsgrad in Achtel und Wolkenuntergrenze
Sa, 29.01. 0:00 8(570m)
Fr, 28.01. 23:50 8(570m)
Fr, 28.01. 23:40 8
Fr, 28.01. 23:30 8(570m)
Fr, 28.01. 23:20 8(570m)
Fr, 28.01. 23:10 8
Fr, 28.01. 23:00 8(570m)
Fr, 28.01. 22:30 8(570m)
Fr, 28.01. 22:00 8(600m)
Fr, 28.01. 21:30 3(570m) 7(2700m) 7(3600m)
Fr, 28.01. 21:00 8(2700m) 8(5700m)
Ortszeit Luftdruck NN (hPa) Tendenz (hPa in 3 Std.)
Fr, 28.01. 19:00 1036 + 0,8
Fr, 28.01. 13:00 1035 + 0,7
Fr, 28.01. 7:00 1032 + 1,7
Fr, 28.01. 1:00 1029 + 1,7
Do, 27.01. 19:00 1026 + 0,3
Do, 27.01. 13:00 1027 - 1,4
Do, 27.01. 7:00 1030 - 0,9
Do, 27.01. 1:00 1032 - 1,1
Ortszeit Luftdruck NN (hPa) Tendenz (hPa in 3 Std.)
Sa, 29.01. 0:00 1034 - 1,2
Fr, 28.01. 23:50 1034 keine Meldung
Fr, 28.01. 23:40 1034 keine Meldung
Fr, 28.01. 23:30 1034 - 1,0
Fr, 28.01. 23:20 1034 keine Meldung
Fr, 28.01. 23:10 1035 keine Meldung
Fr, 28.01. 23:00 1035 - 0,9
Fr, 28.01. 22:30 1035 - 0,8
Fr, 28.01. 22:00 1035 - 0,5
Fr, 28.01. 21:30 1035 - 0,2
Fr, 28.01. 21:00 1036 + 0,2
Ortszeit Schneehöhe (cm)
Fr, 28.01. 19:00 0
Fr, 28.01. 13:00 0
Fr, 28.01. 7:00 0
Fr, 28.01. 1:00 0
Do, 27.01. 19:00 0
Do, 27.01. 13:00 0
Do, 27.01. 7:00 0
Do, 27.01. 1:00 0
Ortszeit Schneehöhe (cm)
Sa, 29.01. 0:00 0
Fr, 28.01. 23:50 0
Fr, 28.01. 23:40 0
Fr, 28.01. 23:30 0
Fr, 28.01. 23:20 0
Fr, 28.01. 23:10 0
Fr, 28.01. 23:00 0
Fr, 28.01. 22:30 0
Fr, 28.01. 22:00 0
Fr, 28.01. 21:30 0
Fr, 28.01. 21:00 0
Link zu dieser Seite / Seite empfehlen

Das Wetter in ...